Hollenthal, Germany

12:42 AM CEST die 28o July, anno 2017 (GMT +0200)
Pünderich | | Change Station

Elev 0 ft 50.04 °N, 7.13 °E | Updated 2 minutes ago

Plerumque Nubila
Plerumque Nubila
62.6 °F
Feels Like 62.6 °F
N
0.6
Ventus Variabilis Ventus from Magis Auster quam Eurus
Gusts 2.5 mph

Hodie
High -- | Low -- °F
--% Chance of Precip.
Yesterday
High -- | Low -- °F
Precip. -- in
Pressio 29.83 in
Visibilitas 6.2 milia passuum
Clouds Few 300 ft
Plerumque Nubila 1000 ft
Frigus in quo Ros apparet 60 °F
Umor 90%
Rainfall 0.00 in
Snow Depth Not available.
5:55 AM 9:20 PM
Waxing Crescent, 24% visible
METAR EDFH 272220Z 28008KT 250V310 9999 FEW003 BKN010 14/14 Q1010
Pressio 29.83 in
Visibilitas 6.2 milia passuum
Clouds Few 300 ft
Plerumque Nubila 1000 ft
Frigus in quo Ros apparet 60 °F
Umor 90%
Rainfall 0.00 in
Snow Depth Not available.
5:55 AM 9:20 PM
Waxing Crescent, 24% visible
METAR EDFH 272220Z 28008KT 250V310 9999 FEW003 BKN010 14/14 Q1010

Get Severe Weather Alerts

Thanks for signing up!

Be on the lookout for a verification email in your inbox.

You'll start receiving the daily forecast at 6 AM.

×

10-Day Weather Forecast

×

Almanac

Astronomy

Jul. 28, 2017 Rise Set
Actual Time
Civil Twilight
Nautical Twilight
Astronomical Twilight
Moon
Length Of Visible Light
Length of Day
Tomorrow will be .
, % of the Moon is Illuminated

Today's Extremes

Country Highs Country Lows

Community

WunderPhotos

Category 6

Welcome to Category 6. This is the collective home for Weather Underground's featured writeups by Dr. Jeff Masters (right), Bob Henson (left), Chris Burt, and other regular contributors.

Nearby

Air Quality

  Air Quality AQ Index Pollutant
Not available.

Snow Depth

Station Depth Elevation

Earthquake Activity

City Distance Mag. Time & Date
Minimum magnitude displayed is 2.5.

Coastal Water Temperatures

Locus Calor

Stations

Nearby Weather Stations

Station Location Temp Frigus Venti Frigus in quo Ros apparet Umor Ventus Precip. Elev Renovata Type